createdAt,value
2019-02-09T00:02:11.990Z,98878.33
2019-02-09T00:04:42.893Z,98876.56
2019-02-09T00:07:13.989Z,98877.97
2019-02-09T00:09:44.893Z,98883.41
2019-02-09T00:12:15.966Z,98880.47
2019-02-09T00:14:46.854Z,98875.39
2019-02-09T00:17:19.290Z,98865.22
2019-02-09T00:19:50.165Z,98867.14
2019-02-09T00:22:21.237Z,98860.27
2019-02-09T00:24:52.253Z,98853.44
2019-02-09T00:27:23.271Z,98854.77
2019-02-09T00:29:54.326Z,98858.17
2019-02-09T00:32:25.338Z,98853.80
2019-02-09T00:34:56.129Z,98842.27
2019-02-09T00:37:27.098Z,98836.94
2019-02-09T00:39:57.885Z,98834.21
2019-02-09T00:42:28.930Z,98830.30
2019-02-09T00:44:59.460Z,98823.12
2019-02-09T00:47:30.358Z,98830.58
2019-02-09T00:50:01.222Z,98829.66
2019-02-09T00:52:32.225Z,98840.89
2019-02-09T00:55:03.212Z,98832.53
2019-02-09T00:57:34.205Z,98821.52
2019-02-09T01:00:10.733Z,98818.87
2019-02-09T01:02:42.008Z,98810.62
2019-02-09T01:05:13.632Z,98806.50
2019-02-09T01:07:44.621Z,98810.63
2019-02-09T01:10:16.413Z,98803.53
2019-02-09T01:12:47.421Z,98806.62
2019-02-09T01:15:18.696Z,98801.57
2019-02-09T01:17:49.886Z,98794.45
2019-02-09T01:20:22.740Z,98784.56
2019-02-09T01:22:54.049Z,98788.27
2019-02-09T01:25:25.136Z,98775.19
2019-02-09T01:27:56.422Z,98784.58
2019-02-09T01:30:27.418Z,98788.98
2019-02-09T01:32:58.728Z,98784.88
2019-02-09T01:35:29.596Z,98786.12
2019-02-09T01:38:00.581Z,98775.33
2019-02-09T01:40:31.488Z,98784.77
2019-02-09T01:43:02.569Z,98782.92
2019-02-09T01:45:33.670Z,98793.06
2019-02-09T01:48:05.184Z,98810.59
2019-02-09T01:50:36.241Z,98806.64
2019-02-09T01:53:07.498Z,98809.75
2019-02-09T01:55:38.341Z,98804.28
2019-02-09T01:58:09.346Z,98802.11
2019-02-09T02:00:41.418Z,98792.52
2019-02-09T02:03:12.513Z,98820.83
2019-02-09T02:05:43.717Z,98825.88
2019-02-09T02:08:18.274Z,98824.35
2019-02-09T02:10:49.395Z,98816.43
2019-02-09T02:13:20.397Z,98824.09
2019-02-09T02:15:51.266Z,98825.03
2019-02-09T02:18:22.541Z,98811.28
2019-02-09T02:20:53.453Z,98822.88
2019-02-09T02:23:25.364Z,98803.97
2019-02-09T02:25:56.151Z,98808.05
2019-02-09T02:28:27.133Z,98817.39
2019-02-09T02:30:58.042Z,98815.58
2019-02-09T02:33:28.928Z,98826.88
2019-02-09T02:35:59.837Z,98836.73
2019-02-09T02:38:30.685Z,98849.81
2019-02-09T02:41:01.573Z,98853.45
2019-02-09T02:43:32.505Z,98864.38
2019-02-09T02:46:03.464Z,98861.31
2019-02-09T02:48:34.459Z,98860.23
2019-02-09T02:51:05.741Z,98847.06
2019-02-09T02:53:37.448Z,98845.92
2019-02-09T02:56:08.359Z,98847.77
2019-02-09T02:58:39.226Z,98856.74
2019-02-09T03:01:10.003Z,98863.67
2019-02-09T03:03:40.999Z,98857.25
2019-02-09T03:06:11.904Z,98864.08
2019-02-09T03:08:42.801Z,98862.91
2019-02-09T03:11:13.771Z,98842.81
2019-02-09T03:13:45.902Z,98848.68
2019-02-09T03:16:16.769Z,98851.80
2019-02-09T03:18:48.021Z,98852.75
2019-02-09T03:21:19.069Z,98859.28
2019-02-09T03:23:50.000Z,98854.16
2019-02-09T03:26:20.942Z,98865.54
2019-02-09T03:28:51.922Z,98877.92
2019-02-09T03:31:24.757Z,98882.56
2019-02-09T03:33:55.653Z,98883.38
2019-02-09T03:36:26.539Z,98884.53
2019-02-09T03:38:57.421Z,98881.75
2019-02-09T03:41:28.298Z,98887.53
2019-02-09T03:43:59.267Z,98888.15
2019-02-09T03:46:30.196Z,98882.09
2019-02-09T03:49:01.481Z,98871.38
2019-02-09T03:51:32.564Z,98877.53
2019-02-09T03:54:03.743Z,98874.05
2019-02-09T03:56:34.650Z,98894.34
2019-02-09T03:59:05.736Z,98897.34
2019-02-09T04:01:37.670Z,98896.11
2019-02-09T04:04:08.857Z,98892.19
2019-02-09T04:06:39.749Z,98892.39
2019-02-09T04:09:11.768Z,98892.08
2019-02-09T04:11:42.653Z,98894.76
2019-02-09T04:14:13.626Z,98909.41
2019-02-09T04:16:44.512Z,98919.37
2019-02-09T04:19:15.865Z,98925.97
2019-02-09T04:21:47.391Z,98918.67
2019-02-09T04:24:18.346Z,98922.05
2019-02-09T04:26:49.206Z,98920.32
2019-02-09T04:29:20.494Z,98922.05
2019-02-09T04:31:51.269Z,98931.75
2019-02-09T04:34:22.644Z,98925.45
2019-02-09T04:36:53.571Z,98927.60
2019-02-09T04:39:24.547Z,98919.56
2019-02-09T04:41:55.332Z,98916.27
2019-02-09T04:44:28.512Z,98893.49
2019-02-09T04:46:59.373Z,98920.72
2019-02-09T04:49:30.414Z,98916.05
2019-02-09T04:52:01.338Z,98921.70
2019-02-09T04:54:32.442Z,98920.58
2019-02-09T04:57:03.429Z,98932.53
2019-02-09T04:59:34.501Z,98936.96
2019-02-09T05:02:05.604Z,98938.09
2019-02-09T05:04:36.895Z,98938.17
2019-02-09T05:07:07.924Z,98946.00
2019-02-09T05:09:38.805Z,98953.94
2019-02-09T05:12:09.668Z,98953.53
2019-02-09T05:14:40.477Z,98964.95
2019-02-09T05:17:11.244Z,98973.11
2019-02-09T05:19:42.310Z,98970.44
2019-02-09T05:22:13.135Z,98961.69
2019-02-09T05:24:44.290Z,98958.01
2019-02-09T05:27:15.215Z,98952.74
2019-02-09T05:29:46.289Z,98958.95
2019-02-09T05:32:17.090Z,98945.95
2019-02-09T05:34:47.973Z,98958.13
2019-02-09T05:37:18.744Z,98961.91
2019-02-09T05:39:49.902Z,98966.47
2019-02-09T05:42:20.648Z,98975.31
2019-02-09T05:44:51.541Z,98971.39
2019-02-09T05:47:22.521Z,98970.13
2019-02-09T05:49:53.785Z,98973.48
2019-02-09T05:52:24.597Z,98958.00
2019-02-09T05:54:55.994Z,98953.58
2019-02-09T05:57:26.778Z,98954.88
2019-02-09T05:59:57.763Z,98960.80
2019-02-09T06:02:28.641Z,98977.58
2019-02-09T06:04:59.647Z,98975.94
2019-02-09T06:07:30.545Z,98983.34
2019-02-09T06:10:01.528Z,98990.05
2019-02-09T06:12:32.302Z,98982.52
2019-02-09T06:15:03.577Z,98990.52
2019-02-09T06:17:34.503Z,98990.46
2019-02-09T06:20:06.704Z,98987.76
2019-02-09T06:22:37.609Z,98997.06
2019-02-09T06:25:08.834Z,98993.59
2019-02-09T06:27:39.773Z,99000.68
2019-02-09T06:30:14.031Z,98991.39
2019-02-09T06:32:44.924Z,99005.15
2019-02-09T06:35:16.218Z,99004.92
2019-02-09T06:37:47.105Z,99009.03
2019-02-09T06:40:18.398Z,99022.54
2019-02-09T06:42:49.416Z,99017.80
2019-02-09T06:45:22.012Z,99034.83
2019-02-09T06:47:52.915Z,99034.04
2019-02-09T06:50:26.604Z,99039.19
2019-02-09T06:52:57.450Z,99042.27
2019-02-09T06:55:28.471Z,99042.77
2019-02-09T06:57:59.244Z,99040.73
2019-02-09T07:00:30.247Z,99035.88
2019-02-09T07:03:01.013Z,99031.63
2019-02-09T07:05:32.003Z,99040.20
2019-02-09T07:08:02.986Z,99050.34
2019-02-09T07:10:33.984Z,99040.44
2019-02-09T07:13:05.138Z,99048.70
2019-02-09T07:15:36.379Z,99053.69
2019-02-09T07:18:07.885Z,99060.45
2019-02-09T07:20:38.769Z,99061.38
2019-02-09T07:23:09.638Z,99075.11
2019-02-09T07:25:40.731Z,99081.61
2019-02-09T07:28:11.615Z,99085.52
2019-02-09T07:30:42.817Z,99088.09
2019-02-09T07:33:13.959Z,99095.05
2019-02-09T07:35:44.955Z,99103.34
2019-02-09T07:38:15.890Z,99103.00
2019-02-09T07:40:46.933Z,99120.67
2019-02-09T07:43:17.882Z,99116.37
2019-02-09T07:45:48.884Z,99127.59
2019-02-09T07:48:19.868Z,99124.39
2019-02-09T07:50:50.863Z,99139.45
2019-02-09T07:53:21.614Z,99145.78
2019-02-09T07:55:52.607Z,99135.80
2019-02-09T07:58:23.517Z,99137.94
2019-02-09T08:00:54.609Z,99135.24
2019-02-09T08:03:25.572Z,99141.08
2019-02-09T08:05:56.656Z,99137.27
2019-02-09T08:08:27.576Z,99148.98
2019-02-09T08:10:58.578Z,99153.57
2019-02-09T08:13:29.249Z,99155.46
2019-02-09T08:16:00.224Z,99147.34
2019-02-09T08:18:31.008Z,99154.75
2019-02-09T08:21:02.198Z,99159.84
2019-02-09T08:23:33.001Z,99167.95
2019-02-09T08:26:04.066Z,99169.86
2019-02-09T08:28:34.968Z,99173.77
2019-02-09T08:31:06.483Z,99179.77
2019-02-09T08:33:37.359Z,99176.06
2019-02-09T08:36:08.467Z,99182.95
2019-02-09T08:38:39.339Z,99176.66
2019-02-09T08:41:10.790Z,99181.20
2019-02-09T08:43:41.820Z,99170.44
2019-02-09T08:46:12.813Z,99164.16
2019-02-09T08:48:43.601Z,99170.70
2019-02-09T08:51:15.609Z,99173.67
2019-02-09T08:53:47.122Z,99170.19
2019-02-09T08:56:18.119Z,99174.67
2019-02-09T08:58:48.993Z,99169.23
2019-02-09T09:01:20.384Z,99170.02
2019-02-09T09:03:51.202Z,99164.23
2019-02-09T09:06:22.179Z,99168.27
2019-02-09T09:08:53.082Z,99170.19
2019-02-09T09:11:23.974Z,99173.39
2019-02-09T09:13:54.829Z,99178.77
2019-02-09T09:16:26.115Z,99174.61
2019-02-09T09:18:56.934Z,99176.98
2019-02-09T09:21:27.830Z,99184.83
2019-02-09T09:23:58.653Z,99190.12
2019-02-09T09:26:29.758Z,99194.25
2019-02-09T09:29:00.766Z,99196.04
2019-02-09T09:31:31.874Z,99204.02
2019-02-09T09:34:02.872Z,99206.49
2019-02-09T09:36:33.948Z,99199.03
2019-02-09T09:39:07.203Z,99202.02
2019-02-09T09:41:38.190Z,99202.95
2019-02-09T09:44:09.165Z,99197.61
2019-02-09T09:46:41.179Z,99211.52
2019-02-09T09:49:11.990Z,99207.39
2019-02-09T09:51:42.973Z,99208.89
2019-02-09T09:54:13.744Z,99214.41
2019-02-09T09:56:45.028Z,99216.75
2019-02-09T09:59:16.044Z,99215.63
2019-02-09T10:01:46.935Z,99224.95
2019-02-09T10:04:17.723Z,99216.75
2019-02-09T10:06:48.696Z,99214.08
2019-02-09T10:09:19.485Z,99210.80
2019-02-09T10:11:52.208Z,99221.73
2019-02-09T10:14:23.281Z,99228.84
2019-02-09T10:16:54.215Z,99233.81
2019-02-09T10:19:24.991Z,99231.94
2019-02-09T10:21:56.066Z,99240.36
2019-02-09T10:24:27.994Z,99242.82
2019-02-09T10:26:59.386Z,99245.82
2019-02-09T10:29:30.169Z,99245.36
2019-02-09T10:32:01.055Z,99246.97
2019-02-09T10:34:31.943Z,99249.65
2019-02-09T10:37:02.850Z,99262.67
2019-02-09T10:39:33.833Z,99268.80
2019-02-09T10:42:05.298Z,99270.34
2019-02-09T10:44:36.205Z,99277.52
2019-02-09T10:47:07.221Z,99274.95
2019-02-09T10:49:38.354Z,99279.84
2019-02-09T10:52:09.199Z,99274.69
2019-02-09T10:54:39.973Z,99276.13
2019-02-09T10:57:10.979Z,99279.66
2019-02-09T10:59:41.936Z,99281.52
2019-02-09T11:02:13.034Z,99271.25
2019-02-09T11:04:44.130Z,99263.17
2019-02-09T11:07:15.219Z,99267.15
2019-02-09T11:09:46.103Z,99276.83
2019-02-09T11:12:17.395Z,99261.28
2019-02-09T11:14:48.199Z,99271.13
2019-02-09T11:17:19.194Z,99265.34
2019-02-09T11:19:49.970Z,99263.38
2019-02-09T11:22:20.766Z,99263.61
2019-02-09T11:24:53.354Z,99262.41
2019-02-09T11:27:24.314Z,99262.50
2019-02-09T11:29:55.242Z,99256.88
2019-02-09T11:32:26.152Z,99259.63
2019-02-09T11:34:57.046Z,99247.06
2019-02-09T11:37:28.032Z,99254.17
2019-02-09T11:39:58.828Z,99256.93
2019-02-09T11:42:29.822Z,99254.55
2019-02-09T11:45:00.823Z,99255.44
2019-02-09T11:47:33.220Z,99254.65
2019-02-09T11:50:04.496Z,99253.06
2019-02-09T11:52:35.502Z,99242.12
2019-02-09T11:55:07.405Z,99247.58
2019-02-09T11:57:38.484Z,99246.37
2019-02-09T12:00:23.323Z,99250.68
2019-02-09T12:03:02.125Z,99243.83
2019-02-09T12:05:27.157Z,99250.28
2019-02-09T12:07:58.212Z,99259.82
2019-02-09T12:10:29.300Z,99253.06
2019-02-09T12:13:00.205Z,99249.92
2019-02-09T12:15:32.780Z,99253.09
2019-02-09T12:18:03.966Z,99237.56
2019-02-09T12:20:35.316Z,99239.94
2019-02-09T12:23:06.695Z,99228.51
2019-02-09T12:25:38.071Z,99233.67
2019-02-09T12:28:09.514Z,99222.08
2019-02-09T12:30:40.325Z,99218.77
2019-02-09T12:33:11.627Z,99219.16
2019-02-09T12:35:43.924Z,99226.10
2019-02-09T12:38:15.071Z,99204.27
2019-02-09T12:40:46.061Z,99228.33
2019-02-09T12:43:16.858Z,99229.18
2019-02-09T12:45:48.043Z,99220.88
2019-02-09T12:48:18.922Z,99245.49
2019-02-09T12:50:49.990Z,99237.03
2019-02-09T12:53:20.813Z,99238.61
2019-02-09T12:55:51.799Z,99242.32
2019-02-09T12:58:22.681Z,99215.59
2019-02-09T13:00:53.580Z,99220.37
2019-02-09T13:03:31.339Z,99219.88
2019-02-09T13:05:58.653Z,99209.64
2019-02-09T13:08:29.522Z,99216.23
2019-02-09T13:11:00.422Z,99213.97
2019-02-09T13:13:31.284Z,99219.97
2019-02-09T13:16:02.556Z,99213.09
2019-02-09T13:18:33.364Z,99217.23
2019-02-09T13:21:04.650Z,99217.89
2019-02-09T13:23:35.453Z,99219.59
2019-02-09T13:26:08.085Z,99228.23
2019-02-09T13:28:38.960Z,99233.55
2019-02-09T13:31:09.966Z,99228.83
2019-02-09T13:33:40.749Z,99232.64
2019-02-09T13:36:11.623Z,99235.73
2019-02-09T13:38:42.506Z,99226.13
2019-02-09T13:41:13.489Z,99239.28
2019-02-09T13:43:44.406Z,99228.75
2019-02-09T13:46:15.392Z,99225.30
2019-02-09T13:48:46.273Z,99239.40
2019-02-09T13:51:18.078Z,99244.16
2019-02-09T13:53:48.955Z,99246.63
2019-02-09T13:56:20.367Z,99230.62
2019-02-09T13:58:51.265Z,99230.70
2019-02-09T14:01:22.341Z,99230.41
2019-02-09T14:03:53.236Z,99230.69
2019-02-09T14:06:24.223Z,99229.59
2019-02-09T14:08:55.012Z,99223.03
2019-02-09T14:11:26.009Z,99232.00
2019-02-09T14:13:56.902Z,99231.30
2019-02-09T14:16:28.922Z,99231.41
2019-02-09T14:18:59.878Z,99227.75
2019-02-09T14:21:30.694Z,99228.19
2019-02-09T14:24:01.450Z,99231.33
2019-02-09T14:26:32.442Z,99227.64
2019-02-09T14:29:03.349Z,99230.73
2019-02-09T14:31:34.342Z,99233.44
2019-02-09T14:34:05.321Z,99233.80
2019-02-09T14:36:36.315Z,99231.95
2019-02-09T14:39:13.341Z,99234.38
2019-02-09T14:41:44.354Z,99244.06
2019-02-09T14:44:15.305Z,99243.80
2019-02-09T14:46:46.311Z,99240.73
2019-02-09T14:49:17.474Z,99244.42
2019-02-09T14:51:48.286Z,99249.38
2019-02-09T14:54:19.339Z,99249.84
2019-02-09T14:56:50.212Z,99249.05
2019-02-09T14:59:21.093Z,99250.79
2019-02-09T15:01:51.992Z,99258.97
2019-02-09T15:04:22.994Z,99257.63
2019-02-09T15:06:53.874Z,99265.23
2019-02-09T15:09:24.940Z,99256.03
2019-02-09T15:11:55.847Z,99254.63
2019-02-09T15:14:26.730Z,99251.33
2019-02-09T15:17:05.320Z,99249.23
2019-02-09T15:19:41.030Z,99253.70
2019-02-09T15:22:12.704Z,99255.20
2019-02-09T15:24:43.957Z,99257.01
2019-02-09T15:27:14.782Z,99257.39
2019-02-09T15:29:46.068Z,99254.31
2019-02-09T15:32:16.882Z,99261.52
2019-02-09T15:34:47.880Z,99264.50
2019-02-09T15:37:18.645Z,99250.41
2019-02-09T15:39:49.538Z,99252.36
2019-02-09T15:42:20.421Z,99255.94
2019-02-09T15:44:51.335Z,99248.77
2019-02-09T15:47:22.210Z,99247.62
2019-02-09T15:49:53.042Z,99251.60
2019-02-09T15:52:24.073Z,99254.12
2019-02-09T15:54:54.813Z,99252.94
2019-02-09T15:57:25.685Z,99246.33
2019-02-09T15:59:58.222Z,99252.46
2019-02-09T16:02:29.230Z,99248.27
2019-02-09T16:05:00.193Z,99252.08
2019-02-09T16:07:31.076Z,99251.09
2019-02-09T16:10:01.862Z,99251.69
2019-02-09T16:12:33.257Z,99257.36
2019-02-09T16:15:04.472Z,99256.53
2019-02-09T16:17:35.550Z,99258.55
2019-02-09T16:20:07.279Z,99258.52
2019-02-09T16:22:38.284Z,99258.08
2019-02-09T16:25:09.454Z,99261.95
2019-02-09T16:27:40.443Z,99267.19
2019-02-09T16:30:18.519Z,99264.01
2019-02-09T16:32:46.976Z,99271.61
2019-02-09T16:35:19.207Z,99266.44
2019-02-09T16:37:50.046Z,99260.89
2019-02-09T16:40:22.573Z,99265.89
2019-02-09T16:42:53.655Z,99266.52
2019-02-09T16:45:32.015Z,99256.42
2019-02-09T16:48:03.030Z,99254.98
2019-02-09T16:50:34.106Z,99253.25
2019-02-09T16:53:05.478Z,99249.72
2019-02-09T16:55:36.498Z,99244.56
2019-02-09T16:58:07.794Z,99249.23
2019-02-09T17:00:40.015Z,99249.42
2019-02-09T17:03:11.789Z,99248.52
2019-02-09T17:05:42.891Z,99240.13
2019-02-09T17:08:15.017Z,99247.91
2019-02-09T17:10:45.920Z,99243.53
2019-02-09T17:13:16.991Z,99252.89
2019-02-09T17:15:47.874Z,99257.05
2019-02-09T17:18:19.286Z,99253.02
2019-02-09T17:20:50.077Z,99248.98
2019-02-09T17:23:21.273Z,99251.66
2019-02-09T17:25:52.057Z,99252.28
2019-02-09T17:28:23.067Z,99247.97
2019-02-09T17:30:53.932Z,99243.95
2019-02-09T17:33:24.934Z,99243.49
2019-02-09T17:35:55.792Z,99242.55
2019-02-09T17:38:27.073Z,99250.14
2019-02-09T17:40:57.997Z,99240.84
2019-02-09T17:43:29.248Z,99242.86
2019-02-09T17:46:04.278Z,99243.75
2019-02-09T17:48:35.342Z,99248.55
2019-02-09T17:51:06.238Z,99247.75
2019-02-09T17:53:37.978Z,99249.86
2019-02-09T17:56:08.941Z,99244.38
2019-02-09T17:58:39.999Z,99239.86
2019-02-09T18:01:12.866Z,99237.27
2019-02-09T18:03:43.952Z,99234.48
2019-02-09T18:06:14.737Z,99235.75
2019-02-09T18:08:45.731Z,99229.66
2019-02-09T18:11:16.636Z,99226.88
2019-02-09T18:13:47.532Z,99223.46
2019-02-09T18:16:18.338Z,99225.93
2019-02-09T18:18:49.290Z,99225.23
2019-02-09T18:21:20.162Z,99224.09
2019-02-09T18:23:51.676Z,99236.57
2019-02-09T18:26:22.573Z,99235.75
2019-02-09T18:28:53.826Z,99240.80
2019-02-09T18:31:24.758Z,99246.49
2019-02-09T18:33:55.750Z,99248.83
2019-02-09T18:36:26.539Z,99247.88
2019-02-09T18:38:58.536Z,99243.64
2019-02-09T18:41:29.315Z,99251.78
2019-02-09T18:44:00.401Z,99252.41
2019-02-09T18:46:31.317Z,99251.58
2019-02-09T18:49:03.297Z,99243.11
2019-02-09T18:51:34.203Z,99238.25
2019-02-09T18:54:06.308Z,99231.42
2019-02-09T18:56:38.234Z,99226.77
2019-02-09T18:59:09.118Z,99223.88
2019-02-09T19:01:40.108Z,99219.66
2019-02-09T19:04:11.386Z,99212.53
2019-02-09T19:06:42.405Z,99208.00
2019-02-09T19:09:13.378Z,99208.42
2019-02-09T19:11:44.161Z,99204.09
2019-02-09T19:14:15.159Z,99204.93
2019-02-09T19:16:46.054Z,99196.88
2019-02-09T19:19:17.046Z,99195.23
2019-02-09T19:21:50.835Z,99197.02
2019-02-09T19:24:21.699Z,99196.17
2019-02-09T19:26:52.575Z,99201.98
2019-02-09T19:29:23.559Z,99199.83
2019-02-09T19:31:54.341Z,99203.53
2019-02-09T19:34:25.215Z,99201.23
2019-02-09T19:36:56.127Z,99197.84
2019-02-09T19:39:27.122Z,99193.91
2019-02-09T19:41:58.004Z,99195.14
2019-02-09T19:44:28.985Z,99199.14
2019-02-09T19:46:59.664Z,99195.22
2019-02-09T19:49:30.544Z,99202.45
2019-02-09T19:52:01.542Z,99192.28
2019-02-09T19:54:32.621Z,99187.56
2019-02-09T19:57:03.642Z,99185.30
2019-02-09T19:59:34.816Z,99182.48
2019-02-09T20:02:05.700Z,99174.02
2019-02-09T20:04:37.381Z,99172.35
2019-02-09T20:07:08.195Z,99182.99
2019-02-09T20:09:39.081Z,99188.18
2019-02-09T20:12:09.882Z,99194.65
2019-02-09T20:14:40.791Z,99189.27
2019-02-09T20:17:11.655Z,99188.47
2019-02-09T20:19:43.792Z,99191.78
2019-02-09T20:22:14.609Z,99175.95
2019-02-09T20:24:45.473Z,99167.02
2019-02-09T20:27:16.813Z,99158.62
2019-02-09T20:29:47.825Z,99154.81
2019-02-09T20:32:18.805Z,99144.47
2019-02-09T20:34:49.784Z,99140.11
2019-02-09T20:37:20.684Z,99135.17
2019-02-09T20:39:51.597Z,99132.16
2019-02-09T20:42:22.373Z,99132.44
2019-02-09T20:44:54.484Z,99134.87
2019-02-09T20:47:25.369Z,99132.68
2019-02-09T20:49:56.454Z,99126.98
2019-02-09T20:52:27.361Z,99118.63
2019-02-09T20:54:58.337Z,99120.02
2019-02-09T20:57:29.337Z,99122.27
2019-02-09T21:00:00.395Z,99119.36
2019-02-09T21:02:31.411Z,99115.33
2019-02-09T21:05:02.511Z,99116.77
2019-02-09T21:07:33.294Z,99120.75
2019-02-09T21:10:05.190Z,99124.13
2019-02-09T21:12:35.989Z,99135.59
2019-02-09T21:15:08.268Z,99118.28
2019-02-09T21:17:39.196Z,99121.88
2019-02-09T21:20:10.618Z,99123.15
2019-02-09T21:22:41.468Z,99114.77
2019-02-09T21:25:15.813Z,99115.14
2019-02-09T21:27:46.745Z,99114.70
2019-02-09T21:30:19.165Z,99115.42
2019-02-09T21:32:50.435Z,99111.00
2019-02-09T21:35:22.677Z,99108.70
2019-02-09T21:37:54.397Z,99103.22
2019-02-09T21:40:26.439Z,99100.99
2019-02-09T21:42:57.289Z,99097.64
2019-02-09T21:45:28.721Z,99103.73
2019-02-09T21:47:59.578Z,99101.37
2019-02-09T21:50:32.519Z,99093.55
2019-02-09T21:53:03.495Z,99098.84
2019-02-09T21:55:34.685Z,99098.05
2019-02-09T21:58:06.690Z,99094.56
2019-02-09T22:00:41.860Z,99098.95
2019-02-09T22:03:13.496Z,99090.85
2019-02-09T22:05:51.483Z,99082.47
2019-02-09T22:08:19.569Z,99086.27
2019-02-09T22:10:50.204Z,99077.41
2019-02-09T22:13:21.150Z,99079.92
2019-02-09T22:15:52.051Z,99074.73
2019-02-09T22:18:22.962Z,99077.82
2019-02-09T22:20:53.794Z,99078.53
2019-02-09T22:23:24.584Z,99077.09
2019-02-09T22:25:55.740Z,99069.62
2019-02-09T22:28:26.573Z,99050.92
2019-02-09T22:30:57.693Z,99048.36
2019-02-09T22:33:28.641Z,99044.28
2019-02-09T22:36:00.288Z,99035.75
2019-02-09T22:38:31.236Z,99033.97
2019-02-09T22:41:02.284Z,99033.84
2019-02-09T22:43:33.128Z,99035.53
2019-02-09T22:46:04.130Z,99026.13
2019-02-09T22:48:35.004Z,99025.86
2019-02-09T22:51:06.188Z,99027.77
2019-02-09T22:53:37.072Z,99021.12
2019-02-09T22:56:08.065Z,99019.83
2019-02-09T22:58:39.076Z,99012.17
2019-02-09T23:01:40.402Z,99006.91
2019-02-09T23:04:48.116Z,99010.08
2019-02-09T23:07:25.299Z,99006.73
2019-02-09T23:09:57.030Z,99001.07
2019-02-09T23:12:27.948Z,98997.84
2019-02-09T23:14:58.817Z,98992.47
2019-02-09T23:17:29.718Z,98994.25
2019-02-09T23:20:00.512Z,98991.78
2019-02-09T23:22:31.875Z,98988.23
2019-02-09T23:25:02.682Z,98989.84
2019-02-09T23:27:34.035Z,98985.69
2019-02-09T23:30:25.968Z,98982.42
2019-02-09T23:32:56.971Z,98973.59
2019-02-09T23:35:27.835Z,98979.32
2019-02-09T23:37:58.828Z,98973.27
2019-02-09T23:40:29.508Z,98974.75
2019-02-09T23:43:00.429Z,98977.89
2019-02-09T23:45:31.289Z,98974.84
2019-02-09T23:48:02.287Z,98969.15
2019-02-09T23:50:33.181Z,98967.55
2019-02-09T23:53:04.542Z,98962.97
2019-02-09T23:55:35.347Z,98958.14
2019-02-09T23:58:06.393Z,98953.75
